Time;durP1;ratioP1;P1;durP2;ratioP2;P2;SDS_P1;SDS_P2;PMS_P1;PMS_P2;Temp;Humidity;BMP_temperature;BMP_pressure;BME280_temperature;BME280_humidity;BME280_pressure;Samples;Min_cycle;Max_cycle;Signal;HPM_P1;HPM_P2
2024/02/24 00:00:47;;;;;;;329.37;318.73;;;5.10;99.90;;;;;;5014114;28;20461;-72
2024/02/24 00:03:14;;;;;;;301.00;291.40;;;5.00;99.90;;;;;;4995364;28;20867;-72
2024/02/24 00:05:43;;;;;;;260.47;252.37;;;5.00;99.90;;;;;;4994132;28;20963;-72
2024/02/24 00:08:09;;;;;;;241.57;234.07;;;5.10;99.90;;;;;;4994114;28;20461;-71
2024/02/24 00:10:36;;;;;;;239.07;231.70;;;5.20;99.90;;;;;;4999178;28;20453;-72
2024/02/24 00:13:03;;;;;;;231.00;223.70;;;5.10;99.90;;;;;;5013363;28;20477;-72
2024/02/24 00:15:30;;;;;;;265.00;256.70;;;5.10;99.90;;;;;;5001459;28;20449;-72
2024/02/24 00:17:57;;;;;;;276.97;268.30;;;5.00;99.90;;;;;;4994563;28;20458;-72
2024/02/24 00:20:24;;;;;;;294.10;284.83;;;5.00;99.90;;;;;;4993961;28;20454;-72
2024/02/24 00:22:52;;;;;;;329.87;319.27;;;5.00;99.90;;;;;;4993654;28;20477;-72
2024/02/24 00:25:19;;;;;;;340.10;329.00;;;4.90;99.90;;;;;;4992986;28;20468;-71
2024/02/24 00:27:45;;;;;;;369.13;356.70;;;4.90;99.90;;;;;;4993775;28;20454;-72
2024/02/24 00:30:13;;;;;;;380.37;367.30;;;4.90;99.90;;;;;;4993523;28;20465;-72
2024/02/24 00:32:40;;;;;;;374.43;361.73;;;4.90;99.90;;;;;;4998908;28;20472;-69
2024/02/24 00:35:07;;;;;;;382.37;369.20;;;4.90;99.90;;;;;;5012921;28;20453;-72
2024/02/24 00:37:34;;;;;;;386.87;373.37;;;4.90;99.90;;;;;;5013314;28;20484;-72
2024/02/24 00:40:03;;;;;;;359.63;347.40;;;4.90;99.90;;;;;;5004977;28;20469;-71
2024/02/24 00:42:30;;;;;;;349.73;337.77;;;4.90;99.90;;;;;;5013310;28;20524;-72
2024/02/24 00:44:56;;;;;;;349.07;337.37;;;4.90;99.90;;;;;;5004654;28;20461;-72
2024/02/24 00:47:23;;;;;;;300.33;290.60;;;4.90;99.90;;;;;;5012958;28;20453;-72
2024/02/24 00:49:50;;;;;;;305.23;295.33;;;4.90;99.90;;;;;;4997932;28;20454;-72
2024/02/24 00:52:17;;;;;;;296.80;287.33;;;4.80;99.90;;;;;;4993257;28;20454;-72
2024/02/24 00:54:43;;;;;;;337.70;326.70;;;4.90;99.90;;;;;;4992910;28;20466;-72
2024/02/24 00:57:12;;;;;;;347.10;335.43;;;4.80;99.90;;;;;;4993125;28;21028;-72
2024/02/24 00:59:38;;;;;;;343.87;332.37;;;4.80;99.90;;;;;;4998683;28;20472;-72
2024/02/24 01:02:05;;;;;;;347.17;335.20;;;4.80;99.90;;;;;;5003791;28;20458;-72
2024/02/24 01:04:32;;;;;;;357.83;345.63;;;4.80;99.90;;;;;;4997203;28;20848;-71
2024/02/24 01:07:00;;;;;;;373.90;361.03;;;4.90;99.90;;;;;;5012937;28;20823;-72
2024/02/24 01:09:27;;;;;;;355.10;343.00;;;4.90;99.90;;;;;;5012783;28;20453;-72
2024/02/24 01:11:54;;;;;;;360.83;348.53;;;4.90;99.90;;;;;;5004631;28;20449;-72
2024/02/24 01:14:33;;;;;;;368.53;355.93;;;4.80;99.90;;;;;;5009263;28;20584;-72
2024/02/24 01:17:00;;;;;;;375.33;362.40;;;4.80;99.90;;;;;;4993142;28;20568;-71
2024/02/24 01:19:26;;;;;;;372.83;359.93;;;4.80;99.90;;;;;;5008979;28;20845;-72
2024/02/24 01:21:53;;;;;;;375.57;362.57;;;4.80;99.90;;;;;;5008133;28;20471;-72
2024/02/24 01:24:20;;;;;;;383.03;369.73;;;4.70;99.90;;;;;;4992985;28;20485;-72
2024/02/24 01:26:47;;;;;;;375.87;362.70;;;4.70;99.90;;;;;;4992845;28;20450;-72
2024/02/24 01:29:13;;;;;;;367.07;354.50;;;4.60;99.90;;;;;;5002649;28;20453;-72
2024/02/24 01:31:42;;;;;;;350.93;338.97;;;4.60;99.90;;;;;;5012290;28;20453;-72
2024/02/24 01:34:08;;;;;;;382.03;368.47;;;4.60;99.90;;;;;;4994534;28;20485;-72
2024/02/24 01:36:35;;;;;;;389.53;375.70;;;4.60;99.90;;;;;;5005739;28;20488;-72
2024/02/24 01:39:02;;;;;;;394.77;380.70;;;4.60;99.90;;;;;;4995913;28;20842;-72
2024/02/24 01:41:29;;;;;;;428.57;412.67;;;4.60;99.90;;;;;;5005098;28;20843;-72
2024/02/24 01:43:56;;;;;;;420.40;404.97;;;4.60;99.90;;;;;;5011794;28;20473;-72
2024/02/24 01:46:22;;;;;;;382.30;368.73;;;4.70;99.90;;;;;;4993067;28;20461;-72
2024/02/24 01:48:51;;;;;;;385.50;372.00;;;4.70;99.90;;;;;;4992606;28;20466;-71
2024/02/24 01:51:18;;;;;;;390.93;376.97;;;4.70;99.90;;;;;;4992640;28;20457;-72
2024/02/24 01:53:45;;;;;;;406.67;392.13;;;4.60;99.90;;;;;;4992306;28;20851;-71
2024/02/24 01:56:15;;;;;;;407.80;393.03;;;4.60;99.90;;;;;;5002145;28;20463;-72
2024/02/24 01:58:42;;;;;;;399.57;385.13;;;4.60;99.90;;;;;;5006461;28;20497;-72
2024/02/24 02:01:09;;;;;;;418.70;403.20;;;4.60;99.90;;;;;;4992634;28;20969;-72
2024/02/24 02:03:37;;;;;;;445.67;428.77;;;4.60;99.90;;;;;;4997073;28;20531;-72
2024/02/24 02:06:05;;;;;;;451.37;433.70;;;4.60;99.90;;;;;;5012013;28;20463;-72
2024/02/24 02:08:32;;;;;;;463.47;445.03;;;4.60;99.90;;;;;;5012211;28;20544;-72
2024/02/24 02:10:59;;;;;;;466.90;448.33;;;4.70;99.90;;;;;;5011797;28;20967;-72
2024/02/24 02:13:26;;;;;;;472.17;453.17;;;4.70;99.90;;;;;;5011723;28;20848;-72
2024/02/24 02:15:55;;;;;;;452.17;434.27;;;4.70;99.90;;;;;;5012217;28;20453;-72
2024/02/24 02:18:22;;;;;;;447.47;429.97;;;4.70;99.90;;;;;;5008763;28;21031;-72
2024/02/24 02:20:51;;;;;;;445.30;428.30;;;4.70;99.90;;;;;;4998830;28;20464;-71
2024/02/24 02:23:19;;;;;;;431.53;415.27;;;4.80;99.90;;;;;;5009124;28;20480;-70
2024/02/24 02:25:46;;;;;;;412.70;397.50;;;4.80;99.90;;;;;;5006522;28;20857;-72
2024/02/24 02:28:13;;;;;;;425.13;409.43;;;4.70;99.90;;;;;;5010236;28;20449;-72
2024/02/24 02:30:40;;;;;;;434.57;418.33;;;4.70;99.90;;;;;;5005862;28;20460;-72
2024/02/24 02:33:08;;;;;;;429.67;413.73;;;4.60;99.90;;;;;;5003258;28;20504;-72
2024/02/24 02:35:35;;;;;;;428.63;412.40;;;4.60;99.90;;;;;;5011793;28;20457;-72
2024/02/24 02:38:03;;;;;;;446.30;429.13;;;4.50;99.90;;;;;;5011293;28;20821;-72
2024/02/24 02:40:31;;;;;;;467.87;449.07;;;4.50;99.90;;;;;;4992087;28;20463;-72
2024/02/24 02:42:58;;;;;;;464.47;445.83;;;4.40;99.90;;;;;;5007838;28;20476;-72
2024/02/24 02:45:25;;;;;;;459.30;440.77;;;4.40;99.90;;;;;;5003719;28;20449;-72
2024/02/24 02:47:52;;;;;;;462.57;443.97;;;4.40;99.90;;;;;;5013668;28;20972;-72
2024/02/24 02:50:19;;;;;;;469.67;450.57;;;4.30;99.90;;;;;;4996426;28;20450;-72
2024/02/24 02:52:46;;;;;;;474.47;454.87;;;4.30;99.90;;;;;;4995090;28;20472;-72
2024/02/24 02:55:13;;;;;;;475.00;455.07;;;4.30;99.90;;;;;;4995581;28;20517;-72
2024/02/24 02:57:41;;;;;;;477.30;457.73;;;4.30;99.90;;;;;;5009002;28;20861;-72
2024/02/24 03:00:09;;;;;;;461.20;442.53;;;4.40;99.90;;;;;;5005708;28;20971;-72
2024/02/24 03:02:35;;;;;;;446.00;428.63;;;4.40;99.90;;;;;;4995296;28;20860;-72
2024/02/24 03:05:04;;;;;;;462.93;444.43;;;4.50;99.90;;;;;;5003382;28;20487;-72
2024/02/24 03:07:30;;;;;;;455.03;437.17;;;4.40;99.90;;;;;;5011043;28;20464;-72
2024/02/24 03:09:57;;;;;;;469.53;450.53;;;4.40;99.90;;;;;;5003069;28;20461;-72
2024/02/24 03:12:24;;;;;;;493.10;472.70;;;4.40;99.90;;;;;;5014711;28;20479;-72
2024/02/24 03:14:52;;;;;;;479.93;459.87;;;4.30;99.90;;;;;;5014502;28;20453;-71
2024/02/24 03:17:19;;;;;;;490.77;470.17;;;4.30;99.90;;;;;;5014634;28;20485;-72
2024/02/24 03:19:47;;;;;;;480.60;460.33;;;4.30;99.90;;;;;;5014902;28;20460;-72
2024/02/24 03:22:13;;;;;;;484.20;463.73;;;4.30;99.90;;;;;;4998668;28;20462;-72
2024/02/24 03:24:42;;;;;;;494.17;472.97;;;4.30;99.90;;;;;;5014205;28;20461;-72
2024/02/24 03:27:08;;;;;;;492.37;471.33;;;4.30;99.90;;;;;;5013578;28;20449;-72
2024/02/24 03:29:35;;;;;;;489.83;469.13;;;4.40;99.90;;;;;;4999609;28;20461;-72
2024/02/24 03:32:04;;;;;;;471.07;452.17;;;4.30;99.90;;;;;;5014613;28;20945;-72
2024/02/24 03:34:30;;;;;;;445.73;428.33;;;4.30;99.90;;;;;;5010311;28;20477;-71
2024/02/24 03:36:57;;;;;;;443.17;426.07;;;4.30;99.90;;;;;;5010773;28;20477;-72
2024/02/24 03:39:24;;;;;;;433.60;417.17;;;4.30;99.90;;;;;;5014076;28;20984;-72
2024/02/24 03:41:51;;;;;;;451.60;434.07;;;4.30;99.90;;;;;;5014347;28;20979;-72
2024/02/24 03:44:17;;;;;;;457.73;439.73;;;4.10;99.90;;;;;;5011508;28;20473;-72
2024/02/24 03:46:44;;;;;;;466.47;447.87;;;4.00;99.90;;;;;;5000607;28;20940;-72
2024/02/24 03:49:13;;;;;;;481.73;461.43;;;4.00;99.90;;;;;;5014484;28;20885;-72
2024/02/24 03:51:39;;;;;;;490.13;469.33;;;3.90;99.90;;;;;;5014134;28;20453;-72
2024/02/24 03:54:06;;;;;;;495.63;473.97;;;4.00;99.90;;;;;;5003917;28;20473;-72
2024/02/24 03:56:33;;;;;;;497.63;475.17;;;3.90;99.90;;;;;;4994501;28;20461;-72
2024/02/24 03:59:00;;;;;;;507.30;484.50;;;3.80;99.90;;;;;;4993242;28;20496;-72
2024/02/24 04:01:27;;;;;;;505.30;481.93;;;3.80;99.90;;;;;;4994371;28;20449;-71
2024/02/24 04:03:54;;;;;;;516.37;491.20;;;3.70;99.90;;;;;;4993744;28;20477;-72
2024/02/24 04:06:23;;;;;;;536.40;509.17;;;3.70;99.90;;;;;;4994265;28;20460;-72
2024/02/24 04:08:50;;;;;;;541.43;513.67;;;3.70;99.90;;;;;;5009020;28;20961;-72
2024/02/24 04:11:17;;;;;;;541.57;512.93;;;3.70;99.90;;;;;;5012497;28;20956;-72
2024/02/24 04:13:43;;;;;;;535.53;507.37;;;3.70;99.90;;;;;;4999334;28;20497;-72
2024/02/24 04:16:10;;;;;;;525.93;498.27;;;3.80;99.90;;;;;;4992772;28;20479;-72
2024/02/24 04:18:37;;;;;;;519.30;492.87;;;3.90;99.90;;;;;;4993650;28;20877;-72
2024/02/24 04:21:04;;;;;;;532.10;505.40;;;3.90;99.90;;;;;;4994005;28;20469;-72
2024/02/24 04:23:32;;;;;;;535.43;508.33;;;3.90;99.90;;;;;;4997738;28;20481;-72
2024/02/24 04:25:59;;;;;;;534.77;507.97;;;3.90;99.90;;;;;;5005725;28;20454;-72
2024/02/24 04:28:26;;;;;;;538.17;511.27;;;3.90;99.90;;;;;;5005314;28;20449;-72
2024/02/24 04:30:53;;;;;;;536.43;509.13;;;3.80;99.90;;;;;;5013186;28;20939;-72
2024/02/24 04:33:20;;;;;;;539.27;511.60;;;3.80;99.90;;;;;;5010248;28;20482;-72
2024/02/24 04:35:47;;;;;;;523.83;497.20;;;3.90;99.90;;;;;;4993632;28;20504;-72
2024/02/24 04:38:14;;;;;;;513.97;488.37;;;3.90;99.90;;;;;;4995435;28;20494;-72
2024/02/24 04:40:42;;;;;;;517.37;492.17;;;4.00;99.90;;;;;;5007745;28;20454;-72
2024/02/24 04:43:09;;;;;;;508.00;483.27;;;4.10;99.90;;;;;;4993135;28;20860;-72
2024/02/24 04:45:36;;;;;;;511.40;486.53;;;4.10;99.90;;;;;;5006256;28;20457;-71
2024/02/24 04:48:03;;;;;;;522.33;496.57;;;4.20;99.90;;;;;;5013608;28;20542;-72
2024/02/24 04:50:30;;;;;;;533.40;506.53;;;4.20;99.90;;;;;;5013414;28;20944;-72
2024/02/24 04:52:57;;;;;;;534.67;507.27;;;4.10;99.90;;;;;;5013101;28;20485;-72
2024/02/24 04:55:24;;;;;;;544.17;515.80;;;4.10;99.90;;;;;;5013862;28;20449;-72
2024/02/24 04:57:52;;;;;;;543.60;514.57;;;4.00;99.90;;;;;;5013129;28;20481;-73
2024/02/24 05:00:19;;;;;;;544.87;516.07;;;4.00;99.90;;;;;;5012621;28;20953;-72
2024/02/24 05:02:45;;;;;;;546.40;516.50;;;4.10;99.90;;;;;;5012603;28;20476;-72
2024/02/24 05:05:12;;;;;;;544.47;514.27;;;4.10;99.90;;;;;;5012804;28;20839;-72
2024/02/24 05:07:39;;;;;;;544.57;514.27;;;4.00;99.90;;;;;;5012697;28;20615;-72
2024/02/24 05:10:07;;;;;;;539.37;508.87;;;4.00;99.90;;;;;;5004166;28;20460;-72
2024/02/24 05:12:34;;;;;;;526.33;497.87;;;4.00;99.90;;;;;;5007802;28;20997;-72
2024/02/24 05:15:02;;;;;;;535.60;506.03;;;4.00;99.90;;;;;;5008663;28;20457;-72
2024/02/24 05:17:29;;;;;;;542.27;512.70;;;4.00;99.90;;;;;;5012604;28;20511;-72
2024/02/24 05:19:56;;;;;;;542.87;513.57;;;4.10;99.90;;;;;;5012528;28;20457;-72
2024/02/24 05:22:22;;;;;;;536.37;506.37;;;4.10;99.90;;;;;;5012399;28;20473;-71
2024/02/24 05:24:50;;;;;;;546.60;516.63;;;4.10;99.90;;;;;;5012224;28;20459;-71
2024/02/24 05:27:16;;;;;;;551.37;520.87;;;4.10;99.90;;;;;;5012048;28;20733;-72
2024/02/24 05:29:46;;;;;;;554.87;523.47;;;4.10;99.90;;;;;;5011309;28;20456;-71
2024/02/24 05:32:16;;;;;;;535.23;505.40;;;4.20;99.90;;;;;;5012606;28;20813;-72
2024/02/24 05:34:43;;;;;;;534.20;504.60;;;4.20;99.90;;;;;;5011997;28;20487;-72
2024/02/24 05:37:10;;;;;;;524.03;496.63;;;4.30;99.90;;;;;;5012163;28;20457;-72
2024/02/24 05:39:37;;;;;;;504.57;479.63;;;4.40;99.90;;;;;;5012284;28;20507;-72
2024/02/24 05:42:05;;;;;;;500.50;475.40;;;4.60;99.90;;;;;;5003667;28;20460;-72
2024/02/24 05:44:32;;;;;;;492.10;468.17;;;4.60;99.90;;;;;;5007503;28;20458;-72
2024/02/24 05:46:58;;;;;;;488.47;465.97;;;4.60;99.90;;;;;;4992749;28;20457;-72
2024/02/24 05:49:27;;;;;;;487.83;465.80;;;4.60;99.90;;;;;;4992802;28;20454;-72
2024/02/24 05:51:54;;;;;;;496.83;474.70;;;4.60;99.90;;;;;;5007944;28;20840;-72
2024/02/24 05:54:20;;;;;;;506.43;483.77;;;4.50;99.90;;;;;;5008879;28;20486;-72
2024/02/24 05:56:47;;;;;;;513.73;490.30;;;4.40;99.90;;;;;;4992592;28;20457;-72
2024/02/24 05:59:14;;;;;;;510.57;487.27;;;4.40;99.90;;;;;;5010240;28;20495;-72
2024/02/24 06:01:41;;;;;;;509.37;485.87;;;4.40;99.90;;;;;;5012195;28;20460;-72
2024/02/24 06:04:08;;;;;;;518.87;494.27;;;4.30;99.90;;;;;;5010943;28;20487;-72
2024/02/24 06:06:36;;;;;;;515.87;491.40;;;4.30;99.90;;;;;;5005195;28;20963;-71
2024/02/24 06:09:03;;;;;;;516.57;491.27;;;4.40;99.90;;;;;;5003251;28;20458;-72
2024/02/24 06:11:29;;;;;;;517.83;492.20;;;4.40;99.90;;;;;;4992379;28;20489;-72
2024/02/24 06:13:56;;;;;;;518.33;492.60;;;4.40;99.90;;;;;;5007696;28;20870;-72
2024/02/24 06:16:23;;;;;;;516.87;490.87;;;4.40;99.90;;;;;;5012312;28;20467;-71
2024/02/24 06:18:50;;;;;;;514.83;489.00;;;4.40;99.90;;;;;;5011929;28;20508;-72
2024/02/24 06:21:17;;;;;;;515.37;489.83;;;4.40;99.90;;;;;;5002117;28;20460;-72
2024/02/24 06:23:45;;;;;;;510.20;484.67;;;4.50;99.90;;;;;;4995168;28;20474;-71
2024/02/24 06:26:12;;;;;;;507.33;482.93;;;4.50;99.90;;;;;;5010713;28;20454;-72
2024/02/24 06:28:39;;;;;;;505.20;481.10;;;4.50;99.90;;;;;;5015600;28;20448;-72
2024/02/24 06:31:08;;;;;;;495.50;472.40;;;4.50;99.90;;;;;;5006797;28;20462;-72
2024/02/24 06:33:35;;;;;;;490.47;467.77;;;4.50;99.90;;;;;;5008378;28;20476;-72
2024/02/24 06:36:03;;;;;;;484.47;462.87;;;4.50;99.90;;;;;;5015719;28;20749;-71
2024/02/24 06:38:30;;;;;;;467.00;447.20;;;4.60;99.90;;;;;;5015671;28;20485;-72
2024/02/24 06:40:58;;;;;;;463.40;444.00;;;4.60;99.90;;;;;;5008020;28;20842;-72
2024/02/24 06:43:25;;;;;;;451.43;432.73;;;4.60;99.90;;;;;;4998367;28;20478;-72
2024/02/24 06:45:52;;;;;;;450.93;432.37;;;4.60;99.90;;;;;;5000425;28;20834;-72
2024/02/24 06:48:19;;;;;;;449.13;430.50;;;4.70;99.90;;;;;;5013957;28;20944;-72
2024/02/24 06:50:45;;;;;;;461.33;442.00;;;4.80;99.90;;;;;;5015019;28;20845;-72
2024/02/24 06:53:12;;;;;;;458.77;439.50;;;4.70;99.90;;;;;;5011962;28;20472;-72
2024/02/24 06:55:39;;;;;;;464.13;444.23;;;4.70;99.90;;;;;;4995717;28;20454;-72
2024/02/24 06:58:08;;;;;;;459.87;440.60;;;4.70;99.90;;;;;;4995285;28;20481;-72
2024/02/24 07:00:35;;;;;;;466.33;446.60;;;4.70;99.90;;;;;;4995753;28;20457;-72
2024/02/24 07:03:01;;;;;;;461.03;441.30;;;4.70;99.90;;;;;;4995004;28;20478;-72
2024/02/24 07:05:31;;;;;;;460.90;441.27;;;4.80;99.90;;;;;;5015158;28;20453;-72
2024/02/24 07:07:58;;;;;;;459.67;440.07;;;4.80;99.90;;;;;;5015102;28;20937;-72
2024/02/24 07:10:25;;;;;;;466.30;446.00;;;4.80;99.90;;;;;;5014847;28;20457;-72
2024/02/24 07:12:52;;;;;;;450.33;431.43;;;4.80;99.90;;;;;;5007537;28;20483;-72
2024/02/24 07:15:20;;;;;;;443.77;425.07;;;4.90;99.90;;;;;;4995008;28;20836;-72
2024/02/24 07:17:47;;;;;;;452.10;433.00;;;4.90;99.90;;;;;;5000996;28;20475;-72
2024/02/24 07:20:14;;;;;;;443.50;425.40;;;4.90;99.90;;;;;;5012666;28;20457;-72
2024/02/24 07:22:42;;;;;;;435.37;417.67;;;5.00;99.90;;;;;;4994865;28;20565;-71
2024/02/24 07:25:09;;;;;;;437.13;419.53;;;5.00;99.90;;;;;;4994884;28;20460;-72
2024/02/24 07:27:36;;;;;;;442.13;424.27;;;5.00;99.90;;;;;;4999925;28;20457;-72
2024/02/24 07:30:03;;;;;;;439.00;421.17;;;5.10;99.90;;;;;;5014357;28;20548;-72
2024/02/24 07:32:33;;;;;;;436.10;418.30;;;5.20;99.90;;;;;;5014069;28;20504;-72
2024/02/24 07:35:01;;;;;;;432.33;414.87;;;5.30;99.90;;;;;;5013956;28;20453;-72
2024/02/24 07:37:28;;;;;;;439.97;422.20;;;5.30;99.90;;;;;;5014485;28;20468;-73
2024/02/24 07:39:55;;;;;;;428.27;410.77;;;5.40;99.90;;;;;;5014302;28;20484;-73
2024/02/24 07:42:21;;;;;;;416.10;399.30;;;5.40;99.90;;;;;;5005972;28;21032;-73
2024/02/24 07:44:48;;;;;;;422.67;405.17;;;5.50;99.90;;;;;;5013805;28;20457;-73
2024/02/24 07:47:17;;;;;;;412.27;394.97;;;5.50;99.90;;;;;;5014310;28;20460;-73
2024/02/24 07:49:45;;;;;;;398.23;382.47;;;5.50;99.90;;;;;;5014494;28;20878;-73
2024/02/24 07:52:12;;;;;;;363.67;349.97;;;5.40;99.90;;;;;;4996271;28;20460;-73
2024/02/24 07:54:39;;;;;;;369.57;355.67;;;5.40;99.90;;;;;;5007195;28;20457;-73
2024/02/24 07:57:06;;;;;;;386.37;371.33;;;5.40;99.90;;;;;;5003626;28;20461;-73
2024/02/24 07:59:32;;;;;;;388.50;373.23;;;5.30;99.90;;;;;;5010493;28;21000;-73
2024/02/24 08:01:59;;;;;;;403.53;387.47;;;5.40;99.90;;;;;;5012878;28;20463;-73
2024/02/24 08:04:26;;;;;;;426.83;409.57;;;5.40;99.90;;;;;;5012856;28;20453;-72
2024/02/24 08:06:54;;;;;;;456.17;436.73;;;5.30;99.90;;;;;;5013518;28;20449;-72
2024/02/24 08:09:21;;;;;;;482.10;460.80;;;5.40;99.90;;;;;;5005262;28;20457;-70
2024/02/24 08:11:48;;;;;;;426.20;408.53;;;5.40;99.90;;;;;;5013783;28;20867;-71
2024/02/24 08:14:15;;;;;;;505.27;483.63;;;5.40;99.90;;;;;;5004078;28;20469;-70
2024/02/24 08:16:42;;;;;;;525.40;502.40;;;5.40;99.90;;;;;;5013007;28;20460;-71
2024/02/24 08:19:10;;;;;;;462.20;443.77;;;5.50;99.90;;;;;;5012849;28;20491;-70
2024/02/24 08:21:37;;;;;;;432.17;415.63;;;5.50;99.90;;;;;;5012304;28;20464;-71
2024/02/24 08:24:07;;;;;;;454.23;437.07;;;5.60;99.90;;;;;;5012508;28;20972;-72
2024/02/24 08:26:37;;;;;;;473.70;456.13;;;5.60;99.90;;;;;;5013126;28;20457;-72
2024/02/24 08:29:04;;;;;;;491.53;473.07;;;5.60;99.90;;;;;;5005182;28;20449;-72
2024/02/24 08:31:30;;;;;;;512.83;494.53;;;5.70;99.90;;;;;;4994335;28;20544;-72
2024/02/24 08:33:57;;;;;;;539.90;520.43;;;5.70;99.90;;;;;;5000966;28;20477;-72
2024/02/24 08:36:24;;;;;;;529.27;510.57;;;5.60;99.90;;;;;;5013095;28;20815;-72
2024/02/24 08:38:51;;;;;;;512.70;494.90;;;5.60;99.90;;;;;;5013054;28;20495;-72
2024/02/24 08:41:19;;;;;;;524.50;506.47;;;5.70;99.90;;;;;;5012908;28;21087;-71
2024/02/24 08:43:46;;;;;;;582.37;562.07;;;5.50;99.90;;;;;;5010962;28;20468;-72
2024/02/24 08:46:13;;;;;;;532.93;515.20;;;5.50;99.90;;;;;;5010109;28;20457;-72
2024/02/24 08:48:39;;;;;;;552.63;534.20;;;5.50;99.90;;;;;;5014191;28;20953;-72
2024/02/24 08:51:06;;;;;;;579.97;560.13;;;5.60;99.90;;;;;;5011120;28;20449;-73
2024/02/24 08:53:33;;;;;;;520.57;503.43;;;5.60;99.90;;;;;;5012557;28;20469;-73
2024/02/24 08:56:01;;;;;;;567.03;547.90;;;5.60;99.90;;;;;;5013754;28;20467;-72
2024/02/24 08:58:30;;;;;;;613.40;592.10;;;5.70;99.90;;;;;;5005747;28;20457;-72
2024/02/24 09:00:58;;;;;;;617.43;595.63;;;5.70;99.90;;;;;;5013114;28;20544;-72
2024/02/24 09:03:25;;;;;;;589.93;569.00;;;5.80;99.90;;;;;;5010319;28;20845;-72
2024/02/24 09:05:51;;;;;;;601.23;579.87;;;5.80;99.90;;;;;;5013326;28;20843;-71
2024/02/24 09:08:18;;;;;;;669.93;644.33;;;5.90;99.90;;;;;;5007775;28;20895;-71
2024/02/24 09:10:45;;;;;;;603.70;581.93;;;5.90;99.90;;;;;;5007202;28;20449;-71
2024/02/24 09:13:12;;;;;;;664.63;639.23;;;5.90;99.90;;;;;;5010208;28;20492;-72
2024/02/24 09:15:40;;;;;;;639.57;615.17;;;6.10;99.90;;;;;;5012733;28;20953;-72
2024/02/24 09:18:07;;;;;;;563.43;543.70;;;6.40;99.90;;;;;;5006175;28;20531;-75
2024/02/24 09:20:35;;;;;;;448.90;434.70;;;6.80;99.90;;;;;;5008805;28;20477;-72
2024/02/24 09:23:03;;;;;;;319.30;309.80;;;7.00;99.90;;;;;;5007591;28;20556;-71
2024/02/24 09:25:30;;;;;;;109.83;106.23;;;7.10;99.90;;;;;;5005234;28;21007;-72
2024/02/24 09:27:57;;;;;;;114.90;111.10;;;7.00;99.90;;;;;;5006119;28;20453;-71
2024/02/24 09:30:24;;;;;;;61.80;59.63;;;6.90;99.90;;;;;;4999258;28;20991;-72
2024/02/24 09:32:53;;;;;;;49.97;48.07;;;6.70;99.90;;;;;;4996834;28;20474;-71
2024/02/24 09:35:23;;;;;;;39.70;38.17;;;6.60;99.90;;;;;;4992325;28;20454;-71
2024/02/24 09:37:49;;;;;;;23.50;22.17;;;6.40;99.90;;;;;;5007402;28;20457;-71
2024/02/24 09:40:17;;;;;;;15.53;14.73;;;6.40;99.90;;;;;;5011999;28;20655;-71
2024/02/24 09:42:46;;;;;;;10.83;10.13;;;6.40;99.90;;;;;;5011689;28;20924;-71
2024/02/24 09:45:14;;;;;;;9.60;8.80;;;6.40;99.90;;;;;;4995905;28;20458;-70
2024/02/24 09:47:42;;;;;;;7.53;6.93;;;6.40;99.90;;;;;;5009325;28;20453;-72
2024/02/24 09:50:11;;;;;;;7.43;6.93;;;6.70;99.90;;;;;;5011095;28;20461;-71
2024/02/24 09:52:39;;;;;;;3.77;2.90;;;6.90;99.90;;;;;;5005658;28;20473;-72
2024/02/24 09:55:07;;;;;;;4.47;3.60;;;7.10;99.90;;;;;;5012026;28;20550;-72
2024/02/24 09:57:36;;;;;;;5.23;3.60;;;7.10;99.90;;;;;;5009466;28;20458;-72
2024/02/24 10:00:05;;;;;;;4.80;2.80;;;7.20;99.90;;;;;;4996368;28;20486;-72
2024/02/24 10:02:32;;;;;;;4.53;2.60;;;7.30;99.90;;;;;;5000435;28;20864;-72
2024/02/24 10:04:59;;;;;;;5.80;2.67;;;7.80;99.90;;;;;;5015774;28;20466;-72
2024/02/24 10:07:29;;;;;;;4.97;1.87;;;8.10;99.90;;;;;;5008034;28;20456;-72
2024/02/24 10:09:56;;;;;;;4.57;1.50;;;8.00;97.30;;;;;;5016255;28;20449;-72
2024/02/24 10:12:24;;;;;;;6.23;1.40;;;7.80;97.20;;;;;;5015920;28;20479;-69
2024/02/24 10:14:51;;;;;;;6.70;1.40;;;7.50;97.00;;;;;;5015357;28;20457;-69
2024/02/24 10:17:18;;;;;;;4.80;1.63;;;7.20;96.90;;;;;;5015761;28;20457;-70
2024/02/24 10:19:46;;;;;;;5.83;1.67;;;7.00;96.90;;;;;;5014607;28;20476;-70
2024/02/24 10:22:17;;;;;;;5.53;1.80;;;7.00;96.90;;;;;;5006707;28;20453;-69
2024/02/24 10:24:46;;;;;;;10.10;1.83;;;6.90;96.80;;;;;;4995642;28;20457;-69
2024/02/24 10:27:16;;;;;;;4.97;1.83;;;7.00;96.90;;;;;;5014618;28;20453;-68
2024/02/24 10:29:43;;;;;;;4.30;1.60;;;7.00;94.20;;;;;;5015420;28;20444;-69
2024/02/24 10:32:11;;;;;;;3.73;1.50;;;7.20;96.90;;;;;;5014698;28;20462;-70
2024/02/24 10:34:38;;;;;;;4.20;1.50;;;7.30;96.40;;;;;;5014812;28;20455;-73
2024/02/24 10:37:07;;;;;;;4.60;1.80;;;7.50;93.80;;;;;;5015374;28;20467;-70
2024/02/24 10:39:36;;;;;;;3.97;1.30;;;7.60;91.40;;;;;;5014502;28;20889;-70
2024/02/24 10:42:06;;;;;;;4.17;1.63;;;7.90;90.60;;;;;;5014997;28;20459;-70
2024/02/24 10:44:34;;;;;;;5.50;1.33;;;8.00;90.60;;;;;;5014044;28;20463;-68
2024/02/24 10:47:01;;;;;;;3.90;1.30;;;8.10;90.70;;;;;;5014864;28;20453;-69
2024/02/24 10:49:29;;;;;;;7.93;1.27;;;8.40;90.80;;;;;;5006617;28;20800;-69
2024/02/24 10:51:56;;;;;;;4.00;1.10;;;8.60;90.90;;;;;;5007814;28;20830;-70
2024/02/24 10:54:28;;;;;;;4.37;1.17;;;8.50;85.10;;;;;;5014208;28;20465;-70
2024/02/24 10:56:58;;;;;;;4.10;1.20;;;8.40;84.20;;;;;;5008585;28;20458;-71
2024/02/24 10:59:29;;;;;;;5.87;1.53;;;8.40;84.20;;;;;;5011285;28;20570;-70
2024/02/24 11:02:00;;;;;;;4.53;1.30;;;8.70;84.50;;;;;;5013459;28;20460;-70
2024/02/24 11:04:27;;;;;;;6.07;1.60;;;9.30;77.40;;;;;;5008501;28;20452;-71
2024/02/24 11:06:56;;;;;;;16.30;2.20;;;10.40;77.30;;;;;;5004300;28;20822;-70
2024/02/24 11:09:29;;;;;;;4.25;2.00;;;10.00;76.70;;;;;;5007902;28;20571;-70
2024/02/24 11:12:04;;;;;;;4.30;1.00;;;9.50;69.60;;;;;;5010313;28;20201;-70
2024/02/24 11:14:34;;;;;;;3.63;1.07;;;8.80;75.80;;;;;;5006313;28;20919;-70
2024/02/24 11:17:03;;;;;;;4.60;1.30;;;8.70;73.40;;;;;;5006252;28;20449;-70
2024/02/24 11:19:43;;;;;;;3.90;1.13;;;8.70;76.80;;;;;;4996610;28;21019;-69
2024/02/24 11:22:17;;;;;;;4.23;1.23;;;8.30;70.00;;;;;;5009214;28;20452;-70
2024/02/24 11:24:59;;;;;;;4.20;1.00;;;8.30;76.50;;;;;;5005680;28;20541;-70
2024/02/24 11:27:29;;;;;;;4.40;1.33;;;8.20;76.40;;;;;;5012113;28;20484;-73
2024/02/24 11:29:57;;;;;;;5.00;1.10;;;8.30;76.40;;;;;;5004689;28;20449;-70
2024/02/24 11:32:24;;;;;;;4.43;1.20;;;8.20;76.40;;;;;;5004888;28;20538;-70
2024/02/24 11:34:55;;;;;;;8.27;1.80;;;8.20;76.30;;;;;;5001726;28;20542;-70
2024/02/24 11:37:23;;;;;;;6.10;2.90;;;8.20;71.80;;;;;;5005987;28;20285;-69
2024/02/24 11:39:50;;;;;;;5.87;1.63;;;8.20;72.80;;;;;;5005242;28;20473;-69
2024/02/24 11:42:20;;;;;;;9.50;1.67;;;8.10;76.30;;;;;;5008715;28;20739;-70
2024/02/24 11:44:49;;;;;;;4.70;1.30;;;8.10;76.40;;;;;;5014220;28;20453;-68
2024/02/24 11:47:18;;;;;;;5.60;2.70;;;8.10;76.40;;;;;;4999330;28;20541;-69
2024/02/24 11:49:47;;;;;;;6.30;1.47;;;8.40;76.60;;;;;;5009074;28;20445;-70
2024/02/24 11:52:15;;;;;;;4.50;1.17;;;8.90;77.00;;;;;;5006785;28;20532;-70
2024/02/24 11:54:43;;;;;;;4.63;1.30;;;9.40;77.40;;;;;;4995800;28;20449;-69
2024/02/24 11:57:14;;;;;;;5.40;1.20;;;9.10;69.30;;;;;;4999512;28;20941;-69
2024/02/24 11:59:41;;;;;;;4.30;1.10;;;8.90;69.10;;;;;;5000480;28;20473;-70
2024/02/24 12:02:08;;;;;;;3.70;1.13;;;8.60;76.80;;;;;;5002363;28;20980;-70
2024/02/24 12:04:36;;;;;;;4.77;1.63;;;8.60;76.70;;;;;;5002311;28;20456;-70
2024/02/24 12:07:04;;;;;;;4.73;1.10;;;8.60;76.70;;;;;;5005913;28;21016;-70
2024/02/24 12:09:31;;;;;;;4.30;1.23;;;8.60;72.20;;;;;;5010727;28;20453;-70
2024/02/24 12:11:58;;;;;;;5.80;1.13;;;8.50;76.00;;;;;;5014048;28;20459;-69
2024/02/24 12:14:27;;;;;;;5.60;1.33;;;8.30;76.50;;;;;;5005435;28;20464;-70
2024/02/24 12:16:56;;;;;;;15.50;8.83;;;8.30;76.50;;;;;;5001568;28;20485;-71
2024/02/24 12:19:25;;;;;;;7.47;2.78;;;8.30;76.50;;;;;;5000163;28;20461;-71
2024/02/24 12:21:53;;;;;;;4.60;1.60;;;8.40;76.60;;;;;;5007981;28;20197;-69
2024/02/24 12:24:29;;;;;;;5.20;1.70;;;8.20;76.40;;;;;;5009464;28;20549;-69
2024/02/24 12:27:00;;;;;;;4.33;1.93;;;7.90;76.10;;;;;;5006322;28;20449;-72